createdAt,value
2018-05-07T00:00:53.661Z,4.70
2018-05-07T00:03:21.257Z,4.80
2018-05-07T00:05:49.106Z,5.00
2018-05-07T00:08:16.912Z,4.80
2018-05-07T00:10:44.452Z,4.80
2018-05-07T00:13:12.034Z,4.80
2018-05-07T00:15:40.104Z,4.60
2018-05-07T00:18:07.891Z,4.60
2018-05-07T00:20:35.463Z,4.60
2018-05-07T00:23:03.276Z,4.60
2018-05-07T00:25:30.816Z,4.70
2018-05-07T00:27:58.608Z,4.70
2018-05-07T00:30:26.304Z,4.70
2018-05-07T00:32:54.741Z,4.60
2018-05-07T00:35:22.292Z,4.60
2018-05-07T00:37:50.457Z,4.70
2018-05-07T00:40:18.295Z,4.60
2018-05-07T00:42:46.011Z,4.50
2018-05-07T00:45:13.645Z,4.50
2018-05-07T00:47:41.273Z,4.40
2018-05-07T00:50:08.818Z,4.30
2018-05-07T00:52:37.271Z,4.10
2018-05-07T00:55:16.689Z,4.10
2018-05-07T00:57:44.516Z,4.20
2018-05-07T01:00:12.605Z,4.20
2018-05-07T01:02:40.161Z,4.20
2018-05-07T01:05:08.578Z,4.10
2018-05-07T01:07:36.119Z,4.10
2018-05-07T01:10:03.727Z,4.00
2018-05-07T01:12:32.020Z,4.00
2018-05-07T01:14:59.560Z,3.80
2018-05-07T01:17:28.004Z,3.90
2018-05-07T01:19:56.273Z,3.90
2018-05-07T01:22:24.348Z,3.90
2018-05-07T01:24:51.892Z,3.90
2018-05-07T01:27:19.459Z,3.70
2018-05-07T01:29:47.080Z,3.80
2018-05-07T01:32:14.655Z,3.90
2018-05-07T01:34:42.427Z,3.80
2018-05-07T01:37:10.197Z,3.90
2018-05-07T01:39:37.741Z,3.90
2018-05-07T01:42:05.452Z,3.80
2018-05-07T01:44:33.033Z,3.70
2018-05-07T01:47:00.588Z,3.60
2018-05-07T01:49:29.328Z,3.70
2018-05-07T01:51:57.087Z,3.70
2018-05-07T01:54:24.624Z,3.70
2018-05-07T01:56:52.667Z,3.70
2018-05-07T01:59:21.104Z,3.30
2018-05-07T02:01:48.794Z,3.40
2018-05-07T02:04:17.439Z,3.60
2018-05-07T02:06:45.309Z,3.50
2018-05-07T02:09:13.180Z,3.60
2018-05-07T02:11:41.028Z,3.50
2018-05-07T02:14:08.588Z,3.10
2018-05-07T02:16:37.139Z,3.30
2018-05-07T02:19:04.737Z,3.30
2018-05-07T02:21:32.724Z,3.30
2018-05-07T02:24:00.572Z,3.30
2018-05-07T02:26:28.256Z,3.30
2018-05-07T02:28:55.908Z,3.30
2018-05-07T02:31:23.774Z,3.30
2018-05-07T02:33:51.340Z,3.30
2018-05-07T02:36:18.888Z,3.30
2018-05-07T02:38:46.728Z,3.30
2018-05-07T02:41:14.305Z,3.10
2018-05-07T02:43:41.899Z,3.10
2018-05-07T02:46:10.205Z,3.00
2018-05-07T02:48:37.987Z,3.10
2018-05-07T02:51:05.619Z,3.00
2018-05-07T02:53:33.280Z,3.00
2018-05-07T02:56:01.072Z,2.80
2018-05-07T02:58:28.999Z,3.00
2018-05-07T03:00:56.550Z,3.10
2018-05-07T03:03:25.182Z,3.00
2018-05-07T03:05:53.071Z,2.90
2018-05-07T03:08:20.933Z,3.00
2018-05-07T03:10:48.524Z,3.00
2018-05-07T03:13:17.314Z,2.90
2018-05-07T03:15:46.144Z,2.80
2018-05-07T03:18:13.868Z,2.80
2018-05-07T03:20:42.226Z,2.80
2018-05-07T03:23:10.992Z,2.90
2018-05-07T03:25:38.592Z,2.90
2018-05-07T03:28:06.557Z,2.90
2018-05-07T03:30:34.884Z,2.80
2018-05-07T03:33:02.634Z,2.80
2018-05-07T03:35:30.325Z,2.70
2018-05-07T03:37:58.160Z,2.80
2018-05-07T03:40:25.841Z,2.90
2018-05-07T03:42:53.716Z,2.80
2018-05-07T03:45:21.637Z,2.60
2018-05-07T03:47:49.493Z,2.60
2018-05-07T03:50:17.119Z,2.80
2018-05-07T03:52:44.943Z,2.90
2018-05-07T03:55:12.836Z,3.00
2018-05-07T03:57:40.433Z,3.00
2018-05-07T04:00:08.370Z,3.00
2018-05-07T04:02:35.960Z,3.10
2018-05-07T04:05:03.548Z,3.10
2018-05-07T04:07:31.411Z,3.20
2018-05-07T04:09:59.466Z,3.20
2018-05-07T04:12:27.048Z,3.20
2018-05-07T04:14:54.894Z,3.20
2018-05-07T04:17:34.473Z,3.10
2018-05-07T04:20:13.854Z,3.10
2018-05-07T04:22:54.252Z,3.30
2018-05-07T04:25:21.999Z,3.20
2018-05-07T04:27:49.710Z,3.30
2018-05-07T04:30:17.507Z,3.30
2018-05-07T04:32:45.188Z,3.40
2018-05-07T04:35:12.875Z,3.50
2018-05-07T04:37:40.521Z,3.60
2018-05-07T04:40:08.204Z,3.70
2018-05-07T04:42:35.820Z,3.90
2018-05-07T04:45:03.566Z,4.00
2018-05-07T04:47:32.028Z,4.20
2018-05-07T04:49:59.618Z,4.20
2018-05-07T04:52:27.376Z,4.40
2018-05-07T04:54:55.792Z,4.70
2018-05-07T04:57:23.472Z,4.70
2018-05-07T04:59:51.048Z,4.80
2018-05-07T05:02:20.372Z,5.30
2018-05-07T05:04:47.912Z,5.20
2018-05-07T05:07:15.819Z,5.50
2018-05-07T05:09:43.410Z,5.70
2018-05-07T05:12:11.345Z,5.90
2018-05-07T05:14:38.971Z,6.20
2018-05-07T05:17:06.508Z,6.40
2018-05-07T05:19:34.210Z,6.60
2018-05-07T05:22:02.117Z,6.80
2018-05-07T05:24:30.061Z,7.10
2018-05-07T05:26:57.838Z,7.30
2018-05-07T05:29:25.495Z,7.40
2018-05-07T05:31:53.288Z,7.60
2018-05-07T05:34:22.537Z,7.80
2018-05-07T05:36:50.127Z,7.80
2018-05-07T05:39:17.793Z,7.90
2018-05-07T05:41:45.456Z,8.30
2018-05-07T05:44:13.039Z,8.60
2018-05-07T05:46:40.760Z,8.80
2018-05-07T05:49:08.391Z,8.70
2018-05-07T05:51:36.296Z,8.80
2018-05-07T05:54:04.109Z,9.20
2018-05-07T05:56:31.895Z,9.40
2018-05-07T05:59:00.352Z,9.70
2018-05-07T06:01:28.832Z,9.80
2018-05-07T06:03:57.202Z,9.80
2018-05-07T06:06:24.847Z,9.80
2018-05-07T06:08:52.454Z,10.00
2018-05-07T06:11:20.788Z,10.40
2018-05-07T06:13:48.440Z,10.30
2018-05-07T06:16:16.145Z,10.40
2018-05-07T06:18:43.930Z,10.60
2018-05-07T06:21:11.757Z,10.80
2018-05-07T06:23:40.266Z,11.30
2018-05-07T06:26:07.836Z,11.30
2018-05-07T06:28:35.736Z,11.50
2018-05-07T06:31:03.416Z,11.70
2018-05-07T06:33:31.868Z,12.10
2018-05-07T06:35:59.580Z,12.00
2018-05-07T06:38:27.399Z,12.40
2018-05-07T06:40:55.257Z,12.50
2018-05-07T06:43:22.948Z,12.80
2018-05-07T06:45:51.470Z,13.20
2018-05-07T06:48:19.273Z,13.20
2018-05-07T06:50:47.120Z,13.60
2018-05-07T06:53:14.742Z,13.80
2018-05-07T06:55:42.512Z,13.90
2018-05-07T06:58:10.313Z,14.20
2018-05-07T07:00:37.990Z,14.40
2018-05-07T07:03:05.856Z,14.50
2018-05-07T07:05:33.714Z,14.70
2018-05-07T07:08:02.177Z,14.90
2018-05-07T07:10:29.994Z,15.20
2018-05-07T07:12:57.608Z,15.50
2018-05-07T07:15:25.178Z,15.60
2018-05-07T07:17:52.730Z,15.60
2018-05-07T07:20:20.556Z,15.70
2018-05-07T07:22:48.219Z,15.80
2018-05-07T07:25:15.764Z,16.20
2018-05-07T07:27:43.367Z,16.20
2018-05-07T07:30:11.382Z,16.50
2018-05-07T07:32:39.836Z,16.60
2018-05-07T07:35:07.424Z,16.60
2018-05-07T07:37:35.102Z,16.80
2018-05-07T07:40:02.754Z,17.20
2018-05-07T07:42:30.528Z,17.50
2018-05-07T07:44:58.311Z,17.40
2018-05-07T07:47:26.277Z,17.80
2018-05-07T07:49:53.879Z,17.70
2018-05-07T07:52:21.530Z,17.60
2018-05-07T07:54:49.200Z,17.90
2018-05-07T07:57:16.825Z,18.00
2018-05-07T07:59:44.384Z,18.00
2018-05-07T08:02:11.932Z,18.30
2018-05-07T08:04:39.524Z,18.40
2018-05-07T08:07:07.072Z,18.40
2018-05-07T08:09:34.927Z,18.00
2018-05-07T08:12:02.585Z,18.10
2018-05-07T08:14:30.496Z,18.20
2018-05-07T08:16:58.800Z,18.50
2018-05-07T08:19:26.601Z,18.50
2018-05-07T08:21:54.148Z,18.50
2018-05-07T08:24:22.005Z,18.70
2018-05-07T08:26:49.786Z,18.40
2018-05-07T08:29:17.348Z,18.70
2018-05-07T08:31:45.072Z,18.50
2018-05-07T08:34:12.671Z,18.50
2018-05-07T08:36:40.246Z,18.70
2018-05-07T08:39:07.802Z,18.80
2018-05-07T08:41:35.557Z,18.90
2018-05-07T08:44:03.150Z,19.10
2018-05-07T08:46:30.903Z,19.30
2018-05-07T08:48:59.345Z,19.30
2018-05-07T08:51:27.180Z,19.30
2018-05-07T08:53:55.233Z,19.40
2018-05-07T08:56:23.038Z,18.80
2018-05-07T08:58:50.582Z,18.70
2018-05-07T09:01:18.395Z,18.70
2018-05-07T09:03:46.129Z,18.80
2018-05-07T09:06:13.961Z,19.20
2018-05-07T09:08:41.872Z,19.50
2018-05-07T09:11:09.469Z,20.00
2018-05-07T09:13:37.070Z,20.20
2018-05-07T09:16:04.600Z,20.40
2018-05-07T09:18:32.185Z,20.60
2018-05-07T09:21:00.179Z,20.20
2018-05-07T09:23:28.029Z,19.80
2018-05-07T09:25:55.623Z,19.50
2018-05-07T09:28:23.559Z,20.20
2018-05-07T09:30:51.108Z,20.60
2018-05-07T09:33:19.176Z,20.40
2018-05-07T09:35:46.948Z,20.00
2018-05-07T09:38:14.519Z,20.10
2018-05-07T09:40:42.372Z,20.40
2018-05-07T09:43:10.196Z,20.60
2018-05-07T09:45:38.488Z,20.50
2018-05-07T09:48:06.090Z,20.50
2018-05-07T09:50:33.830Z,20.80
2018-05-07T09:53:01.378Z,21.30
2018-05-07T09:55:29.075Z,21.20
2018-05-07T09:58:04.216Z,21.00
2018-05-07T10:00:37.512Z,21.50
2018-05-07T10:03:05.350Z,21.20
2018-05-07T10:05:33.044Z,20.90
2018-05-07T10:08:01.533Z,21.80
2018-05-07T10:10:29.839Z,21.80
2018-05-07T10:12:57.407Z,21.80
2018-05-07T10:15:25.288Z,21.40
2018-05-07T10:17:53.118Z,20.70
2018-05-07T10:20:20.792Z,20.70
2018-05-07T10:22:48.444Z,21.10
2018-05-07T10:25:16.097Z,21.80
2018-05-07T10:27:43.717Z,21.70
2018-05-07T10:30:11.465Z,21.50
2018-05-07T10:32:39.335Z,21.40
2018-05-07T10:35:07.266Z,21.60
2018-05-07T10:37:34.869Z,21.80
2018-05-07T10:40:02.698Z,22.40
2018-05-07T10:42:30.243Z,21.30
2018-05-07T10:44:57.881Z,21.80
2018-05-07T10:47:26.354Z,22.50
2018-05-07T10:49:54.701Z,22.90
2018-05-07T10:52:22.390Z,22.90
2018-05-07T10:54:50.132Z,21.50
2018-05-07T10:57:17.686Z,22.00
2018-05-07T10:59:45.432Z,22.50
2018-05-07T11:02:13.120Z,22.60
2018-05-07T11:04:40.716Z,22.50
2018-05-07T11:07:08.434Z,22.00
2018-05-07T11:09:36.247Z,22.40
2018-05-07T11:12:03.898Z,22.10
2018-05-07T11:14:31.776Z,22.60
2018-05-07T11:16:59.459Z,22.40
2018-05-07T11:19:27.017Z,21.90
2018-05-07T11:21:54.601Z,22.40
2018-05-07T11:24:22.275Z,23.20
2018-05-07T11:26:49.840Z,22.80
2018-05-07T11:29:17.628Z,23.00
2018-05-07T11:31:45.180Z,23.30
2018-05-07T11:34:12.733Z,23.30
2018-05-07T11:36:41.382Z,23.30
2018-05-07T11:39:09.122Z,23.30
2018-05-07T11:41:36.860Z,23.00
2018-05-07T11:44:04.751Z,23.30
2018-05-07T11:46:32.403Z,22.60
2018-05-07T11:49:00.309Z,23.30
2018-05-07T11:51:28.175Z,23.30
2018-05-07T11:53:55.737Z,23.40
2018-05-07T11:56:23.440Z,23.50
2018-05-07T11:58:51.155Z,23.10
2018-05-07T12:01:18.707Z,23.20
2018-05-07T12:03:46.249Z,22.90
2018-05-07T12:06:13.834Z,23.10
2018-05-07T12:08:41.561Z,22.30
2018-05-07T12:11:09.556Z,23.10
2018-05-07T12:13:37.316Z,22.70
2018-05-07T12:16:04.920Z,23.00
2018-05-07T12:18:32.442Z,22.20
2018-05-07T12:21:00.162Z,23.30
2018-05-07T12:23:27.911Z,23.30
2018-05-07T12:25:55.784Z,23.40
2018-05-07T12:28:23.478Z,22.60
2018-05-07T12:30:51.304Z,23.10
2018-05-07T12:33:19.025Z,23.70
2018-05-07T12:35:46.847Z,23.30
2018-05-07T12:38:14.742Z,22.60
2018-05-07T12:40:42.306Z,22.90
2018-05-07T12:43:09.901Z,23.30
2018-05-07T12:45:38.348Z,23.30
2018-05-07T12:48:06.177Z,23.30
2018-05-07T12:50:33.794Z,23.40
2018-05-07T12:53:01.588Z,23.10
2018-05-07T12:55:29.251Z,23.30
2018-05-07T12:57:57.032Z,23.10
2018-05-07T13:00:24.695Z,23.10
2018-05-07T13:02:52.372Z,23.30
2018-05-07T13:05:19.972Z,23.70
2018-05-07T13:07:47.802Z,23.90
2018-05-07T13:10:15.880Z,23.00
2018-05-07T13:12:43.831Z,22.60
2018-05-07T13:15:11.523Z,23.20
2018-05-07T13:17:39.255Z,24.00
2018-05-07T13:20:07.444Z,23.70
2018-05-07T13:22:34.990Z,23.80
2018-05-07T13:25:02.903Z,24.00
2018-05-07T13:27:30.623Z,23.70
2018-05-07T13:29:58.188Z,23.40
2018-05-07T13:32:25.952Z,22.80
2018-05-07T13:34:53.644Z,23.00
2018-05-07T13:37:22.268Z,23.60
2018-05-07T13:39:50.151Z,23.60
2018-05-07T13:42:18.264Z,23.60
2018-05-07T13:44:46.584Z,23.70
2018-05-07T13:47:14.131Z,23.70
2018-05-07T13:49:41.897Z,23.60
2018-05-07T13:52:11.373Z,23.10
2018-05-07T13:54:39.820Z,23.90
2018-05-07T13:57:07.686Z,23.90
2018-05-07T13:59:35.501Z,23.00
2018-05-07T14:02:03.065Z,22.90
2018-05-07T14:04:30.805Z,23.10
2018-05-07T14:06:58.574Z,22.70
2018-05-07T14:09:27.776Z,22.80
2018-05-07T14:11:55.472Z,22.90
2018-05-07T14:14:23.357Z,23.40
2018-05-07T14:16:51.172Z,23.30
2018-05-07T14:19:19.016Z,22.80
2018-05-07T14:21:46.780Z,22.70
2018-05-07T14:24:15.249Z,23.30
2018-05-07T14:26:43.676Z,22.90
2018-05-07T14:29:11.232Z,22.90
2018-05-07T14:31:38.782Z,23.10
2018-05-07T14:34:06.863Z,23.20
2018-05-07T14:36:34.621Z,22.50
2018-05-07T14:39:02.778Z,22.30
2018-05-07T14:41:30.685Z,23.00
2018-05-07T14:43:58.301Z,22.50
2018-05-07T14:46:25.888Z,22.40
2018-05-07T14:48:53.678Z,22.30
2018-05-07T14:51:21.259Z,22.50
2018-05-07T14:53:48.827Z,22.90
2018-05-07T14:56:17.548Z,22.40
2018-05-07T14:58:45.317Z,22.30
2018-05-07T15:01:14.243Z,21.90
2018-05-07T15:03:42.409Z,21.90
2018-05-07T15:06:09.980Z,22.20
2018-05-07T15:08:37.540Z,22.00
2018-05-07T15:11:05.435Z,22.30
2018-05-07T15:13:33.189Z,22.50
2018-05-07T15:16:01.198Z,22.50
2018-05-07T15:18:29.166Z,21.90
2018-05-07T15:20:57.131Z,22.00
2018-05-07T15:23:24.758Z,21.80
2018-05-07T15:25:52.479Z,22.20
2018-05-07T15:28:20.048Z,21.70
2018-05-07T15:30:47.950Z,22.10
2018-05-07T15:33:15.544Z,22.50
2018-05-07T15:35:43.353Z,22.20
2018-05-07T15:38:11.674Z,22.10
2018-05-07T15:40:39.289Z,22.00
2018-05-07T15:43:07.713Z,22.00
2018-05-07T15:45:35.460Z,22.00
2018-05-07T15:48:03.319Z,21.90
2018-05-07T15:50:31.134Z,22.00
2018-05-07T15:52:59.000Z,21.80
2018-05-07T15:55:26.730Z,21.30
2018-05-07T15:57:54.521Z,21.70
2018-05-07T16:00:22.193Z,21.40
2018-05-07T16:02:49.983Z,21.00
2018-05-07T16:05:18.684Z,21.10
2018-05-07T16:07:46.240Z,20.90
2018-05-07T16:10:14.069Z,20.80
2018-05-07T16:12:41.897Z,20.60
2018-05-07T16:15:10.066Z,20.30
2018-05-07T16:17:37.856Z,20.20
2018-05-07T16:20:05.501Z,19.80
2018-05-07T16:22:34.082Z,19.70
2018-05-07T16:25:01.917Z,19.60
2018-05-07T16:27:29.753Z,19.60
2018-05-07T16:29:57.407Z,19.40
2018-05-07T16:32:25.097Z,19.30
2018-05-07T16:34:53.075Z,19.40
2018-05-07T16:37:20.619Z,19.40
2018-05-07T16:39:48.968Z,19.40
2018-05-07T16:42:17.515Z,19.20
2018-05-07T16:44:45.610Z,19.20
2018-05-07T16:47:12.977Z,19.00
2018-05-07T16:49:40.535Z,18.90
2018-05-07T16:52:08.539Z,18.80
2018-05-07T16:54:36.460Z,18.80
2018-05-07T16:57:04.005Z,18.90
2018-05-07T16:59:31.785Z,18.80
2018-05-07T17:02:00.186Z,18.60
2018-05-07T17:04:27.831Z,18.60
2018-05-07T17:06:55.400Z,18.60
2018-05-07T17:09:22.986Z,18.50
2018-05-07T17:11:50.539Z,18.30
2018-05-07T17:14:19.154Z,18.20
2018-05-07T17:16:46.938Z,18.20
2018-05-07T17:19:14.488Z,18.10
2018-05-07T17:21:42.336Z,18.00
2018-05-07T17:24:10.347Z,17.90
2018-05-07T17:26:38.092Z,18.00
2018-05-07T17:29:05.674Z,17.90
2018-05-07T17:31:33.415Z,17.80
2018-05-07T17:34:01.249Z,17.60
2018-05-07T17:36:28.710Z,17.50
2018-05-07T17:38:56.292Z,17.50
2018-05-07T17:41:23.893Z,17.40
2018-05-07T17:43:51.523Z,17.30
2018-05-07T17:46:31.264Z,17.10
2018-05-07T17:48:58.831Z,17.10
2018-05-07T17:51:26.381Z,17.20
2018-05-07T17:53:54.245Z,17.20
2018-05-07T17:56:21.808Z,17.00
2018-05-07T17:58:49.374Z,16.80
2018-05-07T18:01:17.140Z,17.00
2018-05-07T18:03:44.865Z,17.00
2018-05-07T18:06:12.429Z,17.00
2018-05-07T18:08:40.222Z,16.80
2018-05-07T18:11:08.133Z,16.70
2018-05-07T18:13:35.688Z,16.40
2018-05-07T18:16:03.298Z,16.10
2018-05-07T18:18:31.175Z,15.70
2018-05-07T18:20:59.544Z,15.60
2018-05-07T18:23:27.260Z,15.60
2018-05-07T18:25:54.911Z,15.40
2018-05-07T18:28:22.919Z,15.40
2018-05-07T18:30:50.696Z,15.30
2018-05-07T18:33:19.800Z,14.50
2018-05-07T18:35:47.433Z,14.50
2018-05-07T18:38:15.086Z,14.50
2018-05-07T18:40:43.053Z,14.10
2018-05-07T18:43:10.918Z,13.90
2018-05-07T18:45:38.522Z,13.90
2018-05-07T18:48:06.167Z,13.60
2018-05-07T18:50:34.524Z,13.10
2018-05-07T18:53:02.381Z,13.10
2018-05-07T18:55:30.053Z,13.10
2018-05-07T18:57:57.700Z,13.10
2018-05-07T19:00:25.303Z,12.80
2018-05-07T19:02:53.115Z,12.50
2018-05-07T19:05:20.709Z,12.60
2018-05-07T19:07:48.305Z,12.40
2018-05-07T19:10:16.064Z,12.50
2018-05-07T19:12:44.404Z,11.70
2018-05-07T19:15:12.008Z,11.70
2018-05-07T19:17:40.454Z,11.80
2018-05-07T19:20:08.355Z,11.80
2018-05-07T19:22:36.725Z,12.00
2018-05-07T19:25:04.326Z,12.00
2018-05-07T19:27:31.892Z,12.00
2018-05-07T19:29:59.788Z,11.80
2018-05-07T19:32:27.472Z,11.80
2018-05-07T19:34:56.628Z,11.40
2018-05-07T19:37:24.984Z,11.40
2018-05-07T19:39:53.080Z,11.30
2018-05-07T19:42:20.922Z,11.30
2018-05-07T19:44:48.620Z,11.40
2018-05-07T19:47:17.018Z,11.20
2018-05-07T19:49:45.158Z,11.20
2018-05-07T19:52:12.876Z,11.20
2018-05-07T19:54:40.477Z,11.30
2018-05-07T19:57:08.304Z,11.40
2018-05-07T19:59:35.988Z,11.50
2018-05-07T20:02:04.051Z,11.40
2018-05-07T20:04:31.609Z,11.40
2018-05-07T20:06:59.330Z,11.30
2018-05-07T20:09:27.110Z,11.20
2018-05-07T20:11:54.665Z,11.00
2018-05-07T20:14:22.972Z,11.00
2018-05-07T20:16:50.675Z,11.00
2018-05-07T20:19:18.250Z,10.80
2018-05-07T20:21:46.318Z,10.80
2018-05-07T20:24:13.902Z,10.90
2018-05-07T20:26:41.880Z,10.80
2018-05-07T20:29:10.124Z,10.50
2018-05-07T20:31:38.130Z,10.60
2018-05-07T20:34:05.812Z,10.70
2018-05-07T20:36:33.766Z,10.60
2018-05-07T20:39:01.749Z,10.60
2018-05-07T20:41:29.498Z,10.60
2018-05-07T20:43:57.105Z,10.60
2018-05-07T20:46:24.889Z,10.60
2018-05-07T20:48:52.446Z,10.80
2018-05-07T20:51:20.177Z,10.60
2018-05-07T20:53:47.732Z,10.60
2018-05-07T20:56:15.663Z,10.80
2018-05-07T20:58:43.392Z,10.90
2018-05-07T21:01:11.079Z,10.90
2018-05-07T21:03:38.657Z,11.00
2018-05-07T21:06:06.309Z,10.90
2018-05-07T21:08:34.171Z,10.70
2018-05-07T21:11:02.136Z,10.80
2018-05-07T21:13:29.937Z,10.80
2018-05-07T21:15:57.497Z,10.80
2018-05-07T21:18:25.427Z,10.80
2018-05-07T21:20:53.194Z,10.80
2018-05-07T21:23:21.136Z,10.70
2018-05-07T21:25:49.027Z,10.50
2018-05-07T21:28:16.668Z,10.60
2018-05-07T21:30:44.260Z,10.70
2018-05-07T21:33:12.253Z,10.70
2018-05-07T21:35:39.862Z,10.60
2018-05-07T21:38:07.666Z,10.40
2018-05-07T21:40:35.440Z,10.30
2018-05-07T21:43:03.076Z,10.30
2018-05-07T21:45:31.164Z,10.20
2018-05-07T21:47:58.986Z,10.20
2018-05-07T21:50:26.676Z,10.10
2018-05-07T21:52:54.500Z,9.90
2018-05-07T21:55:22.594Z,9.90
2018-05-07T21:57:50.548Z,9.70
2018-05-07T22:00:18.134Z,9.60
2018-05-07T22:02:45.700Z,9.80
2018-05-07T22:05:13.463Z,9.90
2018-05-07T22:07:41.077Z,9.90
2018-05-07T22:10:09.370Z,9.90
2018-05-07T22:12:37.153Z,9.80
2018-05-07T22:15:04.711Z,9.80
2018-05-07T22:17:32.597Z,9.70
2018-05-07T22:20:00.191Z,9.70
2018-05-07T22:22:27.974Z,9.70
2018-05-07T22:24:55.532Z,9.60
2018-05-07T22:27:23.317Z,9.30
2018-05-07T22:29:51.052Z,9.50
2018-05-07T22:32:18.909Z,9.30
2018-05-07T22:34:46.818Z,9.30
2018-05-07T22:37:14.644Z,9.40
2018-05-07T22:39:42.345Z,9.30
2018-05-07T22:42:10.203Z,9.60
2018-05-07T22:44:38.092Z,9.70
2018-05-07T22:47:05.900Z,9.70
2018-05-07T22:49:33.994Z,9.80
2018-05-07T22:52:01.723Z,9.80
2018-05-07T22:54:30.179Z,9.90
2018-05-07T22:56:58.021Z,9.90
2018-05-07T22:59:25.698Z,9.90
2018-05-07T23:01:53.752Z,9.90
2018-05-07T23:04:21.406Z,9.80
2018-05-07T23:06:49.041Z,10.00
2018-05-07T23:09:16.984Z,10.00
2018-05-07T23:11:45.636Z,10.10
2018-05-07T23:14:13.235Z,10.10
2018-05-07T23:16:40.787Z,10.20
2018-05-07T23:19:09.431Z,10.20
2018-05-07T23:21:37.276Z,10.10
2018-05-07T23:24:04.841Z,10.20
2018-05-07T23:26:32.658Z,10.10
2018-05-07T23:29:00.685Z,9.90
2018-05-07T23:31:28.248Z,9.90
2018-05-07T23:33:55.828Z,9.80
2018-05-07T23:36:23.382Z,9.80
2018-05-07T23:38:51.699Z,10.10
2018-05-07T23:41:19.307Z,10.20
2018-05-07T23:43:47.023Z,10.20
2018-05-07T23:46:14.608Z,10.30
2018-05-07T23:48:42.376Z,10.40
2018-05-07T23:51:10.021Z,10.40
2018-05-07T23:53:37.660Z,10.50
2018-05-07T23:56:05.584Z,10.50
2018-05-07T23:58:33.141Z,10.50
